Airfield :
LOGIN :

Register | Disclaimer

   EN    FR    IT 

 










Legend :    VFR   Marginal VFR   IFR   Intensive IFR   Very Intensive IFR
Visi :
Ceiling :
>= 8 km
>= 3000ft
5 to 8 km
1000 to 3000 ft
1500m to 5 km
500 to 1000 ft
800 to 1500m
200 to 500 ft
< 800m
< 200 ft
Symbols :   Thunderstorms  Fog  Heavy snow  Heavy precipitations  Wind > 20 kt
SIGMETs :     Misc.  Thunderstorms  Icing  Turbulence  Mountain Waves  Volcanic Ashes






- Airport Elevation : 412 ft
- IATA code : ORE


LFOJ - Orleans

CURRENT METAR :
  • 231330Z AUTO 01013KT CAVOK 11/M02 Q1019 NOSIG

EXPIRED METARs :
  • 231300Z AUTO 01010KT CAVOK 11/M03 Q1019 NOSIG
  • 231230Z AUTO 01011KT 310V060 CAVOK 10/M01 Q1020 NOSIG
  • 231200Z AUTO 35013KT CAVOK 10/M03 Q1020 NOSIG
  • 231130Z AUTO 02011KT 340V040 9999 FEW047 SCT058 09/M01 Q1020 NOSIG
  • 231100Z AUTO 02010KT 360V060 9999 FEW040 BKN056 09/M00 Q1020 NOSIG
  • 231030Z AUTO 01012KT 9999 FEW039 BKN056 09/01 Q1020 NOSIG
  • 231000Z AUTO 02012KT 9999 FEW036 BKN058 08/01 Q1020 NOSIG
  • 230930Z AUTO 02012KT 350V060 9999 SCT035 08/01 Q1021 NOSIG
  • 230900Z AUTO 04009KT 010V070 9999 FEW029 08/01 Q1021 NOSIG

TAF TAF LFOJ
Valid from the 23 at 09:00 until the 24 at 09:00 UTC


230800Z 2309/2409 03013KT CAVOK TX12/2315Z TN03/2405Z
BECMG 2320/2322 33007KT
PROB40
TEMPO 2404/2407 4000 -RA BKN030



MET'MAP, your aeronautical weather chart ! - Copyright ORBIFLY December 2007 - Disclaimer

ORBIFLY MET'MAP TEAM :

Programming & Development : Alexandra Zaïnal
Original concept : Baudouin d'Aumeries
Technical & hardware support : Manuel Goepfert
Assistance : Marc-Olivier Méhu




SOURCES & CREDITS :

   NOAA